sensor_id;sensor_type;location;lat;lon;timestamp;temperature;humidity
55269;DHT22;41131;42.990;21.954;2023-06-10T00:04:56;589.20;2432.00
55269;DHT22;41131;42.990;21.954;2023-06-10T00:07:22;589.40;2406.40
55269;DHT22;41131;42.990;21.954;2023-06-10T00:09:48;589.30;2432.00
55269;DHT22;41131;42.990;21.954;2023-06-10T00:12:13;589.20;2432.00
55269;DHT22;41131;42.990;21.954;2023-06-10T00:14:40;589.00;2432.00
55269;DHT22;41131;42.990;21.954;2023-06-10T00:17:06;588.90;2432.00
55269;DHT22;41131;42.990;21.954;2023-06-10T00:19:35;588.90;2432.00
55269;DHT22;41131;42.990;21.954;2023-06-10T00:22:01;588.90;2432.00
55269;DHT22;41131;42.990;21.954;2023-06-10T00:24:28;588.90;2432.00
55269;DHT22;41131;42.990;21.954;2023-06-10T00:26:54;588.90;2432.00
55269;DHT22;41131;42.990;21.954;2023-06-10T00:29:20;588.90;2432.00
55269;DHT22;41131;42.990;21.954;2023-06-10T00:31:46;564.10;2432.00
55269;DHT22;41131;42.990;21.954;2023-06-10T00:34:12;564.10;2432.00
55269;DHT22;41131;42.990;21.954;2023-06-10T00:36:38;564.10;2432.00
55269;DHT22;41131;42.990;21.954;2023-06-10T00:39:04;564.10;2432.00
55269;DHT22;41131;42.990;21.954;2023-06-10T00:41:30;564.10;2432.00
55269;DHT22;41131;42.990;21.954;2023-06-10T00:43:56;564.10;2432.00
55269;DHT22;41131;42.990;21.954;2023-06-10T00:46:23;564.10;2432.00
55269;DHT22;41131;42.990;21.954;2023-06-10T00:48:49;564.00;2432.00
55269;DHT22;41131;42.990;21.954;2023-06-10T00:51:16;564.10;2432.00
55269;DHT22;41131;42.990;21.954;2023-06-10T00:53:43;564.10;2432.00
55269;DHT22;41131;42.990;21.954;2023-06-10T00:56:10;564.00;2432.00
55269;DHT22;41131;42.990;21.954;2023-06-10T00:58:36;564.00;2432.00
55269;DHT22;41131;42.990;21.954;2023-06-10T01:01:02;564.00;2432.00
55269;DHT22;41131;42.990;21.954;2023-06-10T01:03:29;563.90;2432.00
55269;DHT22;41131;42.990;21.954;2023-06-10T01:06:03;564.00;2432.00
55269;DHT22;41131;42.990;21.954;2023-06-10T01:09:01;564.00;2432.00
55269;DHT22;41131;42.990;21.954;2023-06-10T01:11:43;564.00;2432.00
55269;DHT22;41131;42.990;21.954;2023-06-10T01:14:13;564.00;2432.00
55269;DHT22;41131;42.990;21.954;2023-06-10T01:16:40;563.90;2432.00
55269;DHT22;41131;42.990;21.954;2023-06-10T01:19:06;563.70;2432.00
55269;DHT22;41131;42.990;21.954;2023-06-10T01:23:59;563.60;2432.00
55269;DHT22;41131;42.990;21.954;2023-06-10T01:26:29;563.50;2432.00
55269;DHT22;41131;42.990;21.954;2023-06-10T01:29:07;563.50;2432.00
55269;DHT22;41131;42.990;21.954;2023-06-10T01:31:42;563.60;2432.00
55269;DHT22;41131;42.990;21.954;2023-06-10T01:34:11;563.50;2432.00
55269;DHT22;41131;42.990;21.954;2023-06-10T01:36:38;563.70;2432.00
55269;DHT22;41131;42.990;21.954;2023-06-10T01:39:08;563.50;2432.00
55269;DHT22;41131;42.990;21.954;2023-06-10T01:41:35;563.50;2432.00
55269;DHT22;41131;42.990;21.954;2023-06-10T01:44:00;563.50;2432.00
55269;DHT22;41131;42.990;21.954;2023-06-10T01:46:26;563.50;2432.00
55269;DHT22;41131;42.990;21.954;2023-06-10T01:48:52;563.40;2432.00
55269;DHT22;41131;42.990;21.954;2023-06-10T01:51:17;563.50;2432.00
55269;DHT22;41131;42.990;21.954;2023-06-10T01:53:43;563.40;2432.00
55269;DHT22;41131;42.990;21.954;2023-06-10T01:56:09;563.60;2432.00
55269;DHT22;41131;42.990;21.954;2023-06-10T01:58:35;563.70;2432.00
55269;DHT22;41131;42.990;21.954;2023-06-10T02:01:01;563.60;2432.00
55269;DHT22;41131;42.990;21.954;2023-06-10T02:03:26;563.60;2432.00
55269;DHT22;41131;42.990;21.954;2023-06-10T02:05:52;563.60;2432.00
55269;DHT22;41131;42.990;21.954;2023-06-10T02:08:18;563.60;2432.00
55269;DHT22;41131;42.990;21.954;2023-06-10T02:10:44;563.50;2432.00
55269;DHT22;41131;42.990;21.954;2023-06-10T02:13:09;563.50;2432.00
55269;DHT22;41131;42.990;21.954;2023-06-10T02:15:35;563.60;2432.00
55269;DHT22;41131;42.990;21.954;2023-06-10T02:18:01;563.50;2432.00
55269;DHT22;41131;42.990;21.954;2023-06-10T02:20:27;563.50;2432.00
55269;DHT22;41131;42.990;21.954;2023-06-10T02:22:53;563.60;2432.00
55269;DHT22;41131;42.990;21.954;2023-06-10T02:25:19;563.50;2432.00
55269;DHT22;41131;42.990;21.954;2023-06-10T02:27:44;563.50;2432.00
55269;DHT22;41131;42.990;21.954;2023-06-10T02:30:10;563.50;2432.00
55269;DHT22;41131;42.990;21.954;2023-06-10T02:32:36;563.40;2432.00
55269;DHT22;41131;42.990;21.954;2023-06-10T02:35:02;563.50;2432.00
55269;DHT22;41131;42.990;21.954;2023-06-10T02:37:28;563.40;2432.00
55269;DHT22;41131;42.990;21.954;2023-06-10T02:39:54;538.50;2406.40
55269;DHT22;41131;42.990;21.954;2023-06-10T02:42:19;563.20;2432.00
55269;DHT22;41131;42.990;21.954;2023-06-10T02:44:45;563.40;2432.00
55269;DHT22;41131;42.990;21.954;2023-06-10T02:47:11;563.40;2432.00
55269;DHT22;41131;42.990;21.954;2023-06-10T02:49:37;563.30;2432.00
55269;DHT22;41131;42.990;21.954;2023-06-10T02:52:02;563.40;2432.00
55269;DHT22;41131;42.990;21.954;2023-06-10T02:54:28;563.20;2432.00
55269;DHT22;41131;42.990;21.954;2023-06-10T02:56:54;563.30;2432.00
55269;DHT22;41131;42.990;21.954;2023-06-10T02:59:21;563.30;2432.00
55269;DHT22;41131;42.990;21.954;2023-06-10T03:01:47;563.30;2432.00
55269;DHT22;41131;42.990;21.954;2023-06-10T03:04:12;563.20;2432.00
55269;DHT22;41131;42.990;21.954;2023-06-10T23:46:41;512.90;2380.80
55269;DHT22;41131;42.990;21.954;2023-06-10T23:49:07;512.70;2380.80
55269;DHT22;41131;42.990;21.954;2023-06-10T23:51:36;512.80;2380.80
55269;DHT22;41131;42.990;21.954;2023-06-10T23:54:02;512.70;2380.80
55269;DHT22;41131;42.990;21.954;2023-06-10T23:56:29;512.70;2380.80
55269;DHT22;41131;42.990;21.954;2023-06-10T23:58:55;512.60;2380.80
